Time;durP1;ratioP1;P1;durP2;ratioP2;P2;SDS_P1;SDS_P2;PMS_P1;PMS_P2;Temp;Humidity;BMP_temperature;BMP_pressure;BME280_temperature;BME280_humidity;BME280_pressure;Samples;Min_cycle;Max_cycle;Signal;HPM_P1;HPM_P2
2022/12/11 00:00:04;;;;;;;94.25;29.70;;;;;;;-0.60;100.00;101175.06;5123080;27;20039;-77
2022/12/11 00:02:29;;;;;;;93.25;28.63;;;;;;;-0.60;100.00;101169.84;5132154;27;20064;-77
2022/12/11 00:04:55;;;;;;;89.40;28.65;;;;;;;-0.60;100.00;101169.84;5107170;27;20054;-77
2022/12/11 00:07:20;;;;;;;83.88;28.52;;;;;;;-0.60;100.00;101164.66;5143794;27;20024;-77
2022/12/11 00:09:46;;;;;;;98.55;29.02;;;;;;;-0.57;100.00;101171.66;5117413;27;20031;-77
2022/12/11 00:12:11;;;;;;;91.38;28.60;;;;;;;-0.56;100.00;101174.31;5152807;27;20393;-77
2022/12/11 00:14:37;;;;;;;84.82;28.02;;;;;;;-0.57;100.00;101167.38;5118448;27;20038;-77
2022/12/11 00:17:02;;;;;;;94.47;29.08;;;;;;;-0.57;100.00;101169.97;5117312;27;20041;-76
2022/12/11 00:19:28;;;;;;;87.07;30.02;;;;;;;-0.57;100.00;101164.75;5117249;27;20108;-77
2022/12/11 00:21:53;;;;;;;89.68;30.23;;;;;;;-0.53;100.00;101170.91;5086283;27;20027;-77
2022/12/11 00:24:19;;;;;;;98.00;31.92;;;;;;;-0.54;100.00;101169.16;5112799;27;20038;-77
2022/12/11 00:26:44;;;;;;;91.85;26.55;;;;;;;-0.51;100.00;101166.66;5137183;27;20027;-77
2022/12/11 00:29:13;;;;;;;98.43;30.13;;;;;;;-0.53;100.00;101168.31;5093344;27;20041;-77
2022/12/11 00:31:40;;;;;;;88.72;29.92;;;;;;;-0.56;100.00;101161.31;5120485;27;20558;-77
2022/12/11 00:34:06;;;;;;;98.95;30.42;;;;;;;-0.55;100.00;101164.78;5117024;27;20031;-77
2022/12/11 00:36:32;;;;;;;106.13;33.42;;;;;;;-0.53;100.00;101168.31;5131015;27;20043;-77
2022/12/11 00:38:58;;;;;;;93.50;29.58;;;;;;;-0.53;100.00;101169.19;5107122;27;20095;-77
2022/12/11 00:41:23;;;;;;;88.60;29.48;;;;;;;-0.53;100.00;101171.78;5109502;27;20130;-76
2022/12/11 00:43:49;;;;;;;96.10;29.55;;;;;;;-0.53;100.00;101161.38;5131437;27;20105;-77
2022/12/11 00:46:15;;;;;;;95.35;32.50;;;;;;;-0.54;100.00;101159.63;5110886;27;20508;-77
2022/12/11 00:48:40;;;;;;;94.43;30.38;;;;;;;-0.51;100.00;101164.91;5115665;27;20050;-77
2022/12/11 00:51:06;;;;;;;107.97;31.25;;;;;;;-0.50;100.00;101169.28;5108616;27;20500;-77
2022/12/11 00:53:31;;;;;;;97.07;28.85;;;;;;;-0.50;100.00;101158.00;5153256;27;20038;-77
2022/12/11 00:55:57;;;;;;;98.05;31.02;;;;;;;-0.52;100.00;101157.97;5145108;27;20023;-77
2022/12/11 00:58:23;;;;;;;84.90;29.42;;;;;;;-0.44;100.00;101160.78;5124307;27;20500;-76
2022/12/11 01:00:51;;;;;;;106.93;33.25;;;;;;;-0.47;100.00;101164.19;5134917;27;20034;-76
2022/12/11 01:03:17;;;;;;;75.93;26.48;;;;;;;-0.46;100.00;101160.72;5103768;27;20038;-77
2022/12/11 01:05:55;;;;;;;85.38;28.50;;;;;;;-0.47;100.00;101156.38;5148771;27;20031;-77
2022/12/11 01:08:20;;;;;;;93.95;29.77;;;;;;;-0.45;100.00;101154.66;5103185;27;20474;-77
2022/12/11 01:10:46;;;;;;;93.72;32.03;;;;;;;-0.46;100.00;101158.13;5139680;27;20051;-77
2022/12/11 01:13:12;;;;;;;87.00;28.45;;;;;;;-0.53;100.00;101147.50;5132532;27;20092;-77
2022/12/11 01:15:39;;;;;;;86.28;28.67;;;;;;;-0.44;100.00;101152.97;5116294;27;20035;-77
2022/12/11 01:18:05;;;;;;;78.60;28.55;;;;;;;-0.43;100.00;101149.53;5134737;27;20424;-77
2022/12/11 01:20:31;;;;;;;88.95;30.85;;;;;;;-0.41;100.00;101158.25;5116073;27;20092;-77
2022/12/11 01:22:58;;;;;;;89.35;29.90;;;;;;;-0.44;100.00;101153.84;5134646;27;20038;-77
2022/12/11 01:25:25;;;;;;;91.25;28.92;;;;;;;-0.40;100.00;101157.41;5116158;27;20023;-78
2022/12/11 01:27:51;;;;;;;85.68;29.05;;;;;;;-0.41;100.00;101160.00;5134572;27;20015;-78
2022/12/11 01:30:18;;;;;;;80.47;30.30;;;;;;;-0.40;100.00;101166.94;5130152;27;20042;-78
2022/12/11 01:32:44;;;;;;;90.15;30.13;;;;;;;-0.40;100.00;101160.00;5134444;27;20546;-78
2022/12/11 01:35:10;;;;;;;87.45;29.85;;;;;;;-0.36;100.00;101166.19;5112614;27;20047;-78
2022/12/11 01:37:36;;;;;;;88.00;30.30;;;;;;;-0.38;100.00;101171.34;5125766;27;20037;-78
2022/12/11 01:40:04;;;;;;;85.07;29.25;;;;;;;-0.36;100.00;101167.06;5119643;27;20126;-78
2022/12/11 01:42:29;;;;;;;94.47;30.23;;;;;;;-0.38;100.00;101171.34;5134332;27;20106;-78
2022/12/11 01:45:26;;;;;;;87.68;28.80;;;;;;;-0.35;100.00;101157.53;5115863;27;20106;-78
2022/12/11 01:47:56;;;;;;;82.50;28.92;;;;;;;-0.37;100.00;101147.09;5105211;27;20039;-77
2022/12/11 01:50:21;;;;;;;81.50;27.83;;;;;;;-0.37;100.00;101152.31;5133667;27;20073;-77
2022/12/11 01:52:48;;;;;;;81.32;28.52;;;;;;;-0.38;100.00;101147.06;5118188;27;20105;-78
2022/12/11 01:55:16;;;;;;;81.25;29.67;;;;;;;-0.36;100.00;101145.38;5135795;27;20431;-78
2022/12/11 01:57:46;;;;;;;83.95;30.00;;;;;;;-0.36;100.00;101143.66;5129027;27;20015;-78
2022/12/11 02:00:12;;;;;;;80.15;28.67;;;;;;;-0.37;100.00;101149.72;5115597;27;20398;-77
2022/12/11 02:02:43;;;;;;;78.93;28.15;;;;;;;-0.36;100.00;101145.38;5101897;27;20035;-78
2022/12/11 02:05:08;;;;;;;74.43;29.33;;;;;;;-0.36;100.00;101142.78;5127469;27;20466;-78
2022/12/11 02:07:49;;;;;;;75.25;26.75;;;;;;;-0.34;100.00;101144.59;5148376;27;20025;-78
2022/12/11 02:10:15;;;;;;;64.93;26.48;;;;;;;-0.36;100.00;101137.56;5134442;27;20027;-78
2022/12/11 02:12:56;;;;;;;69.68;25.60;;;;;;;-0.36;100.00;101138.44;5154041;27;20063;-78
2022/12/11 02:15:31;;;;;;;64.60;25.70;;;;;;;-0.33;100.00;101137.66;5123917;27;20118;-78
2022/12/11 02:17:56;;;;;;;61.15;24.00;;;;;;;-0.32;100.00;101144.59;5117001;27;20035;-78
2022/12/11 02:20:33;;;;;;;66.18;28.70;;;;;;;-0.35;100.00;101137.59;5133388;27;20388;-78
2022/12/11 02:23:31;;;;;;;82.85;27.75;;;;;;;-0.34;100.00;101139.38;5098207;27;20498;-78
2022/12/11 02:26:15;;;;;;;61.92;24.73;;;;;;;-0.30;100.00;101145.53;5115216;27;20023;-78
2022/12/11 02:28:56;;;;;;;58.17;24.55;;;;;;;-0.29;100.00;101140.38;5121293;27;20467;-78
2022/12/11 02:31:35;;;;;;;68.63;26.40;;;;;;;-0.31;100.00;101131.66;5139391;27;20083;-78
2022/12/11 02:34:08;;;;;;;60.10;25.42;;;;;;;-0.30;100.00;101132.53;5115025;28;20289;-78
2022/12/11 02:36:39;;;;;;;66.95;26.48;;;;;;;-0.29;100.00;101137.78;5132808;27;20055;-78
2022/12/11 02:39:07;;;;;;;65.30;26.42;;;;;;;-0.25;100.00;101136.13;5133394;27;20035;-77
2022/12/11 02:41:34;;;;;;;48.72;19.63;;;;;;;-0.23;100.00;101144.88;5111988;27;20033;-78
2022/12/11 02:44:02;;;;;;;63.83;24.25;;;;;;;-0.26;100.00;101134.38;5114986;28;20039;-78
2022/12/11 02:46:31;;;;;;;53.72;22.95;;;;;;;-0.25;100.00;101129.22;5097791;28;20031;-78
2022/12/11 02:48:57;;;;;;;58.22;25.73;;;;;;;-0.23;100.00;101131.84;5129155;28;20030;-78
2022/12/11 02:51:30;;;;;;;49.00;22.23;;;;;;;-0.24;100.00;101132.69;5145952;27;20034;-78
2022/12/11 02:53:58;;;;;;;58.65;23.77;;;;;;;-0.25;100.00;101134.44;5155694;27;20407;-78
2022/12/11 02:56:31;;;;;;;57.65;26.23;;;;;;;-0.25;100.00;101134.44;5129379;27;20023;-78
2022/12/11 02:59:02;;;;;;;50.30;22.38;;;;;;;-0.24;100.00;101136.19;5117375;27;20035;-78
2022/12/11 03:01:28;;;;;;;56.55;24.00;;;;;;;-0.23;100.00;101124.91;5147766;27;20034;-78
2022/12/11 03:03:54;;;;;;;65.82;26.95;;;;;;;-0.26;100.00;101124.84;5118040;27;20409;-78
2022/12/11 03:06:23;;;;;;;63.20;27.35;;;;;;;-0.30;100.00;101115.19;5122186;27;20458;-78
2022/12/11 03:08:50;;;;;;;48.35;23.38;;;;;;;-0.28;100.00;101121.31;5146882;27;20049;-78
2022/12/11 03:11:16;;;;;;;58.58;24.45;;;;;;;-0.29;100.00;101114.34;5111444;27;20023;-78
2022/12/11 03:13:42;;;;;;;56.40;25.35;;;;;;;-0.30;100.00;101107.38;5130651;27;20402;-78
2022/12/11 03:16:13;;;;;;;63.70;26.45;;;;;;;-0.30;100.00;101114.31;5132639;27;20063;-78
2022/12/11 03:19:05;;;;;;;50.67;23.55;;;;;;;-0.30;100.00;101106.50;5119916;27;20030;-78
2022/12/11 03:21:37;;;;;;;51.88;22.30;;;;;;;-0.32;100.00;101101.28;5118304;27;20038;-77
2022/12/11 03:24:02;;;;;;;49.33;22.02;;;;;;;-0.27;100.00;101110.06;5128979;27;20043;-78
2022/12/11 03:26:31;;;;;;;49.90;24.60;;;;;;;-0.30;100.00;101111.69;5124236;27;20397;-77
2022/12/11 03:29:05;;;;;;;41.90;22.33;;;;;;;-0.28;100.00;101113.50;5148539;27;20095;-78
2022/12/11 03:31:39;;;;;;;41.85;21.35;;;;;;;-0.32;100.00;101111.69;5119479;27;20032;-77
2022/12/11 03:34:13;;;;;;;40.28;19.30;;;;;;;-0.31;100.00;101109.94;5148476;27;20043;-77
2022/12/11 03:36:41;;;;;;;50.88;21.48;;;;;;;-0.30;100.00;101104.78;5100911;27;20120;-77
2022/12/11 03:39:20;;;;;;;47.20;22.25;;;;;;;-0.28;100.00;101108.28;5109655;27;20050;-77
2022/12/11 03:41:48;;;;;;;43.97;22.70;;;;;;;-0.31;100.00;101112.56;5136500;27;20156;-78
2022/12/11 03:44:15;;;;;;;47.88;22.15;;;;;;;-0.33;100.00;101109.03;5117842;27;20034;-78
2022/12/11 03:46:44;;;;;;;43.90;21.98;;;;;;;-0.32;100.00;101103.88;5100848;27;20042;-77
2022/12/11 03:49:20;;;;;;;40.40;21.55;;;;;;;-0.39;100.00;101103.66;5153364;27;20069;-78
2022/12/11 03:51:49;;;;;;;42.08;21.45;;;;;;;-0.37;100.00;101104.56;5142529;27;20035;-78
2022/12/11 03:54:16;;;;;;;38.08;18.17;;;;;;;-0.36;100.00;101104.63;5125828;27;20015;-78
2022/12/11 03:56:44;;;;;;;38.35;21.17;;;;;;;-0.38;100.00;101100.22;5119050;27;20035;-77
2022/12/11 03:59:10;;;;;;;38.30;19.75;;;;;;;-0.38;100.00;101098.50;5119641;27;20023;-77
2022/12/11 04:01:36;;;;;;;37.90;20.38;;;;;;;-0.38;100.00;101092.41;5127328;27;20072;-78
2022/12/11 04:04:01;;;;;;;38.92;20.42;;;;;;;-0.37;100.00;101091.56;5116342;27;20027;-78
2022/12/11 04:06:27;;;;;;;32.40;18.33;;;;;;;-0.36;100.00;101099.41;5112119;27;20042;-77
2022/12/11 04:08:52;;;;;;;37.65;18.73;;;;;;;-0.43;100.00;101093.16;5117567;27;20607;-77
2022/12/11 04:11:33;;;;;;;30.63;18.02;;;;;;;-0.44;100.00;101090.53;5127803;27;20125;-78
2022/12/11 04:16:43;;;;;;;28.88;17.05;;;;;;;-0.43;100.00;101084.47;5135895;27;20047;-78
2022/12/11 04:24:37;;;;;;;30.23;17.75;;;;;;;-0.43;100.00;101090.56;5152106;27;20035;-78
2022/12/11 04:27:03;;;;;;;35.22;19.77;;;;;;;-0.43;100.00;101092.28;5117292;27;20034;-77
2022/12/11 04:29:28;;;;;;;35.53;18.52;;;;;;;-0.46;100.00;101089.59;5117259;27;20038;-78
2022/12/11 04:31:54;;;;;;;36.92;20.30;;;;;;;-0.47;100.00;101096.53;5117221;27;20076;-78
2022/12/11 04:34:19;;;;;;;35.08;19.42;;;;;;;-0.46;100.00;101094.81;5117233;27;20064;-78
2022/12/11 04:36:45;;;;;;;35.97;20.20;;;;;;;-0.46;100.00;101100.88;5135177;27;20035;-78
2022/12/11 04:39:10;;;;;;;25.58;15.75;;;;;;;-0.47;100.00;101088.72;5117063;27;20151;-78
2022/12/11 04:41:37;;;;;;;32.90;18.85;;;;;;;-0.51;100.00;101083.41;5113898;27;20031;-78
2022/12/11 04:44:03;;;;;;;34.00;20.42;;;;;;;-0.47;100.00;101093.03;5117298;27;20118;-77
2022/12/11 04:46:30;;;;;;;34.80;18.95;;;;;;;-0.51;100.00;101086.88;5116926;27;20030;-78
2022/12/11 04:48:55;;;;;;;34.42;20.17;;;;;;;-0.49;100.00;101087.81;5128787;27;20039;-77
2022/12/11 04:51:21;;;;;;;32.60;18.92;;;;;;;-0.49;100.00;101084.31;5116693;27;20034;-78
2022/12/11 04:53:46;;;;;;;34.42;19.60;;;;;;;-0.49;100.00;101085.19;5131457;27;20042;-77
2022/12/11 04:56:14;;;;;;;28.30;17.67;;;;;;;-0.46;100.00;101076.59;5128244;27;20122;-78
2022/12/11 04:58:41;;;;;;;29.95;17.15;;;;;;;-0.46;100.00;101084.41;5137570;27;20023;-78
2022/12/11 05:01:15;;;;;;;33.35;19.25;;;;;;;-0.47;100.00;101083.53;5099476;27;20039;-78
2022/12/11 05:03:41;;;;;;;31.10;18.98;;;;;;;-0.46;100.00;101095.69;5116395;27;20092;-78
2022/12/11 05:06:11;;;;;;;29.05;17.33;;;;;;;-0.45;100.00;101084.44;5116181;27;20027;-77
2022/12/11 05:08:39;;;;;;;26.48;15.18;;;;;;;-0.49;100.00;101085.19;5134848;27;20027;-77
2022/12/11 05:11:07;;;;;;;25.58;14.88;;;;;;;-0.47;100.00;101085.22;5124703;27;20109;-78
2022/12/11 05:13:33;;;;;;;27.38;15.10;;;;;;;-0.49;100.00;101082.59;5119829;27;20045;-77
2022/12/11 05:15:58;;;;;;;32.17;16.88;;;;;;;-0.49;100.00;101086.94;5133430;27;20463;-77
2022/12/11 05:18:24;;;;;;;23.88;14.35;;;;;;;-0.46;100.00;101090.47;5111384;27;20111;-78
2022/12/11 05:21:06;;;;;;;25.35;14.88;;;;;;;-0.45;100.00;101080.94;5136171;27;20435;-77
2022/12/11 05:23:32;;;;;;;30.70;14.90;;;;;;;-0.44;100.00;101088.81;5119966;27;20102;-78
2022/12/11 05:26:00;;;;;;;26.33;13.98;;;;;;;-0.43;100.00;101080.16;5109299;27;20035;-78
2022/12/11 05:28:28;;;;;;;23.10;12.48;;;;;;;-0.47;100.00;101078.31;5134102;27;20039;-77
2022/12/11 05:30:57;;;;;;;27.15;15.50;;;;;;;-0.47;100.00;101085.22;5116073;27;20201;-78
2022/12/11 05:33:24;;;;;;;23.02;12.20;;;;;;;-0.46;100.00;101076.59;5135053;27;20031;-77
2022/12/11 05:35:49;;;;;;;24.88;13.27;;;;;;;-0.51;100.00;101070.41;5111897;27;20044;-78
2022/12/11 05:38:15;;;;;;;25.35;12.93;;;;;;;-0.50;100.00;101073.00;5097891;28;20400;-78
2022/12/11 05:40:40;;;;;;;28.15;12.85;;;;;;;-0.50;100.00;101062.63;5130136;27;20038;-77
2022/12/11 05:43:06;;;;;;;25.92;13.00;;;;;;;-0.53;100.00;101051.25;5130701;27;20043;-78
2022/12/11 05:45:32;;;;;;;23.33;13.25;;;;;;;-0.48;100.00;101060.06;5097854;27;20080;-78
2022/12/11 05:47:57;;;;;;;25.67;12.55;;;;;;;-0.48;100.00;101060.94;5112274;27;20485;-78
2022/12/11 05:50:22;;;;;;;28.63;12.52;;;;;;;-0.46;100.00;101068.78;5114471;27;20051;-77
2022/12/11 05:52:48;;;;;;;16.23;9.18;;;;;;;-0.49;100.00;101064.38;5108657;27;20034;-77
2022/12/11 05:55:13;;;;;;;22.98;12.35;;;;;;;-0.47;100.00;101061.81;5109097;27;20027;-78
2022/12/11 05:57:39;;;;;;;22.77;12.32;;;;;;;-0.46;100.00;101071.41;5114759;27;20057;-78
2022/12/11 06:00:05;;;;;;;19.05;10.73;;;;;;;-0.47;100.00;101074.81;5114170;27;20031;-78
2022/12/11 06:02:34;;;;;;;22.90;13.25;;;;;;;-0.48;100.00;101075.66;5133412;27;20042;-78
2022/12/11 06:04:59;;;;;;;23.92;12.82;;;;;;;-0.48;100.00;101086.94;5133248;27;20451;-77
2022/12/11 06:07:25;;;;;;;19.45;10.88;;;;;;;-0.48;100.00;101081.75;5114621;27;20042;-78
2022/12/11 06:09:50;;;;;;;22.48;13.05;;;;;;;-0.47;100.00;101082.63;5131944;27;20433;-78
2022/12/11 06:12:16;;;;;;;19.35;11.88;;;;;;;-0.48;100.00;101089.56;5130662;27;21351;-78
2022/12/11 06:14:41;;;;;;;22.02;11.77;;;;;;;-0.49;100.00;101082.59;5128386;27;20031;-78
2022/12/11 06:17:07;;;;;;;22.65;12.50;;;;;;;-0.48;100.00;101086.94;5114524;27;20146;-78
2022/12/11 06:19:32;;;;;;;23.50;12.50;;;;;;;-0.46;100.00;101082.69;5130542;27;20048;-78
2022/12/11 06:21:58;;;;;;;24.63;12.68;;;;;;;-0.46;100.00;101077.47;5129924;27;20039;-78
2022/12/11 06:24:23;;;;;;;18.67;11.07;;;;;;;-0.44;100.00;101073.19;5113487;27;20201;-78
2022/12/11 06:26:49;;;;;;;20.50;11.57;;;;;;;-0.43;100.00;101081.88;5131311;27;20391;-78
2022/12/11 06:29:14;;;;;;;22.73;12.13;;;;;;;-0.41;100.00;101080.19;5097515;27;20038;-78
2022/12/11 06:31:40;;;;;;;28.20;12.75;;;;;;;-0.44;100.00;101069.72;5132498;27;20037;-77
2022/12/11 06:34:05;;;;;;;24.05;12.52;;;;;;;-0.46;100.00;101077.47;5132944;27;20035;-78
2022/12/11 06:36:32;;;;;;;20.23;10.88;;;;;;;-0.42;100.00;101073.25;5112517;27;20104;-78
2022/12/11 06:38:57;;;;;;;20.70;12.15;;;;;;;-0.41;100.00;101074.13;5129232;27;20023;-77
2022/12/11 06:41:23;;;;;;;25.25;13.25;;;;;;;-0.42;100.00;101073.25;5129278;27;20462;-78
2022/12/11 06:43:51;;;;;;;22.70;11.80;;;;;;;-0.40;100.00;101068.94;5114016;28;20463;-78
2022/12/11 06:46:18;;;;;;;20.95;11.00;;;;;;;-0.40;100.00;101066.34;5132490;28;20033;-78
2022/12/11 06:48:44;;;;;;;22.25;11.43;;;;;;;-0.39;100.00;101069.84;5129962;28;20064;-77
2022/12/11 06:51:13;;;;;;;20.77;11.90;;;;;;;-0.37;100.00;101069.03;5110738;28;20031;-78
2022/12/11 06:53:39;;;;;;;24.08;12.63;;;;;;;-0.35;100.00;101076.88;5130131;28;20482;-78
2022/12/11 06:56:08;;;;;;;22.17;12.73;;;;;;;-0.37;100.00;101069.03;5105397;28;20398;-76
2022/12/11 06:58:35;;;;;;;22.77;12.82;;;;;;;-0.33;100.00;101070.00;5125948;28;20046;-76
2022/12/11 07:01:00;;;;;;;20.88;12.65;;;;;;;-0.33;100.00;101057.84;5129058;28;20035;-76
2022/12/11 07:03:27;;;;;;;22.23;12.13;;;;;;;-0.32;100.00;101057.03;5130474;28;20046;-76
2022/12/11 07:05:52;;;;;;;22.58;13.02;;;;;;;-0.33;100.00;101049.19;5130699;28;20031;-76
2022/12/11 07:08:18;;;;;;;20.73;11.95;;;;;;;-0.28;100.00;101065.78;5113848;28;20088;-76
2022/12/11 07:10:43;;;;;;;20.75;12.63;;;;;;;-0.29;100.00;101062.31;5113845;28;20015;-76
2022/12/11 07:13:15;;;;;;;24.73;12.90;;;;;;;-0.27;100.00;101067.56;5101574;28;20032;-76
2022/12/11 07:16:00;;;;;;;23.52;13.30;;;;;;;-0.26;100.00;101069.31;5100743;28;20066;-77
2022/12/11 07:18:27;;;;;;;20.90;13.30;;;;;;;-0.26;100.00;101071.91;5101722;28;20059;-77
2022/12/11 07:20:53;;;;;;;24.25;13.70;;;;;;;-0.26;100.00;101080.59;5122078;28;20118;-77
2022/12/11 07:23:19;;;;;;;26.15;15.55;;;;;;;-0.28;100.00;101079.66;5112602;28;20119;-77
2022/12/11 07:25:45;;;;;;;23.63;14.45;;;;;;;-0.28;100.00;101089.22;5099535;28;20064;-77
2022/12/11 07:28:10;;;;;;;26.45;13.35;;;;;;;-0.33;100.00;101085.59;5113799;28;20035;-76
2022/12/11 07:30:37;;;;;;;22.33;13.73;;;;;;;-0.29;100.00;101090.06;5128475;28;20071;-76
2022/12/11 07:33:03;;;;;;;25.05;13.63;;;;;;;-0.29;100.00;101085.72;5121377;28;20027;-77
2022/12/11 07:35:29;;;;;;;22.95;13.85;;;;;;;-0.28;100.00;101091.81;5123723;28;20509;-77
2022/12/11 07:37:54;;;;;;;26.92;14.48;;;;;;;-0.26;100.00;101095.34;5109399;28;20027;-77
2022/12/11 07:40:20;;;;;;;27.27;15.30;;;;;;;-0.29;100.00;101087.47;5114753;28;20394;-77
2022/12/11 07:42:51;;;;;;;27.55;13.52;;;;;;;-0.30;100.00;101083.94;5114131;28;20143;-77
2022/12/11 07:45:16;;;;;;;;;;;;;;;-0.23;100.00;101093.69;5096146;28;20051;-77
2022/12/11 07:47:42;;;;;;;26.17;13.35;;;;;;;-0.25;100.00;101089.28;5113450;28;20420;-77
2022/12/11 07:50:08;;;;;;;23.55;13.15;;;;;;;-0.25;100.00;101086.69;5105409;28;20032;-77
2022/12/11 07:52:34;;;;;;;27.13;14.15;;;;;;;-0.27;100.00;101080.56;5111535;28;20047;-77
2022/12/11 07:54:59;;;;;;;23.15;12.93;;;;;;;-0.26;100.00;101085.81;5110263;28;20068;-77
2022/12/11 07:57:25;;;;;;;27.85;15.18;;;;;;;-0.27;100.00;101083.19;5110334;28;20062;-77
2022/12/11 07:59:52;;;;;;;21.40;13.13;;;;;;;-0.27;100.00;101089.25;5107114;28;20066;-77
2022/12/11 08:02:18;;;;;;;26.15;15.23;;;;;;;-0.26;100.00;101095.34;5108943;28;20027;-77
2022/12/11 08:04:43;;;;;;;26.27;14.30;;;;;;;-0.26;100.00;101082.31;5111885;28;20514;-77
2022/12/11 08:07:09;;;;;;;24.30;14.40;;;;;;;-0.24;100.00;101086.72;5077593;28;20482;-77
2022/12/11 08:09:34;;;;;;;25.20;14.35;;;;;;;-0.19;100.00;101088.59;5113563;28;20020;-77
2022/12/11 08:12:00;;;;;;;28.75;14.23;;;;;;;-0.22;100.00;101082.44;5113669;27;20115;-76
2022/12/11 08:14:25;;;;;;;24.38;14.02;;;;;;;-0.20;100.00;101082.47;5104226;28;20028;-77
2022/12/11 08:16:51;;;;;;;22.30;12.85;;;;;;;-0.16;100.00;101086.91;5071766;28;20403;-76
2022/12/11 08:19:17;;;;;;;25.90;14.00;;;;;;;-0.14;100.00;101089.56;5096609;28;20039;-76
2022/12/11 08:21:42;;;;;;;29.02;14.57;;;;;;;-0.14;100.00;101090.44;5093380;28;20020;-76
2022/12/11 08:24:09;;;;;;;30.65;17.08;;;;;;;-0.12;100.00;101085.28;5102501;28;20020;-76
2022/12/11 08:26:35;;;;;;;26.80;15.32;;;;;;;-0.13;100.00;101091.31;5109188;28;20028;-76
2022/12/11 08:29:01;;;;;;;25.50;15.70;;;;;;;-0.16;100.00;101079.13;5102221;28;20117;-77
2022/12/11 08:31:27;;;;;;;31.60;14.38;;;;;;;-0.12;100.00;101093.09;5102214;28;20432;-76
2022/12/11 08:33:55;;;;;;;21.95;13.60;;;;;;;-0.12;100.00;101086.16;5107087;28;20111;-76
2022/12/11 08:36:22;;;;;;;25.58;14.20;;;;;;;-0.12;100.00;101095.72;5140175;27;20046;-77
2022/12/11 08:38:48;;;;;;;26.55;15.27;;;;;;;-0.12;100.00;101091.38;5119121;27;20080;-77
2022/12/11 08:41:17;;;;;;;27.13;14.90;;;;;;;-0.10;100.00;101086.19;5148421;27;20041;-76
2022/12/11 08:43:43;;;;;;;25.42;14.57;;;;;;;-0.12;100.00;101085.28;5123796;27;20031;-77
2022/12/11 08:46:10;;;;;;;25.50;14.23;;;;;;;-0.10;100.00;101094.91;5129798;27;20019;-77
2022/12/11 08:48:37;;;;;;;28.95;15.07;;;;;;;-0.08;100.00;101090.59;5151835;27;20035;-77
2022/12/11 08:51:06;;;;;;;25.20;14.20;;;;;;;-0.08;100.00;101085.38;5103606;27;20022;-77
2022/12/11 08:53:32;;;;;;;29.42;16.13;;;;;;;-0.07;100.00;101086.28;5132699;27;20031;-77
2022/12/11 08:56:02;;;;;;;25.48;14.48;;;;;;;-0.03;100.00;101082.91;5129362;27;20027;-77
2022/12/11 08:58:28;;;;;;;27.30;14.50;;;;;;;-0.02;100.00;101079.47;5134246;27;20030;-77
2022/12/11 09:00:54;;;;;;;24.73;13.88;;;;;;;-0.02;100.00;101067.34;5096664;27;20027;-77
2022/12/11 09:03:19;;;;;;;26.25;15.40;;;;;;;-0.02;100.00;101066.47;5116477;27;20042;-77
2022/12/11 09:05:44;;;;;;;27.40;14.93;;;;;;;-0.02;100.00;101069.94;5115608;27;20382;-77
2022/12/11 09:08:10;;;;;;;26.88;15.05;;;;;;;-0.01;100.00;101071.69;5109674;27;20720;-77
2022/12/11 09:10:35;;;;;;;35.25;16.65;;;;;;;-0.02;100.00;101061.25;5115457;27;20087;-78
2022/12/11 09:13:01;;;;;;;28.05;15.95;;;;;;;0.00;100.00;101059.56;5125458;27;20034;-86
2022/12/11 09:15:26;;;;;;;28.13;15.65;;;;;;;0.00;100.00;101072.59;5123071;27;20035;-85
2022/12/11 09:17:52;;;;;;;25.83;14.43;;;;;;;0.01;100.00;101066.53;5131849;27;20056;-85
2022/12/11 09:20:17;;;;;;;27.42;14.60;;;;;;;0.03;100.00;101069.19;5114070;27;20035;-85
2022/12/11 09:22:43;;;;;;;27.52;15.07;;;;;;;0.05;100.00;101065.78;5127203;27;20052;-86
2022/12/11 09:25:08;;;;;;;31.92;15.65;;;;;;;0.07;100.00;101073.59;5116073;27;20027;-85
2022/12/11 09:27:34;;;;;;;34.60;15.27;;;;;;;0.07;100.00;101068.41;5134618;27;20035;-86
2022/12/11 09:30:00;;;;;;;30.40;16.80;;;;;;;0.05;100.00;101076.19;5132797;27;20474;-86
2022/12/11 09:32:25;;;;;;;28.63;15.32;;;;;;;0.08;100.00;101085.78;5127956;27;20029;-86
2022/12/11 09:34:51;;;;;;;27.42;14.55;;;;;;;0.09;100.00;101077.13;5115889;27;20096;-86
2022/12/11 09:37:16;;;;;;;27.42;15.23;;;;;;;0.09;100.00;101069.31;5116126;27;20035;-86
2022/12/11 09:39:42;;;;;;;32.72;16.73;;;;;;;0.10;100.00;101076.28;5130322;27;20121;-86
2022/12/11 09:42:17;;;;;;;29.38;15.75;;;;;;;0.11;100.00;101076.31;5116631;27;20043;-86
2022/12/11 09:44:46;;;;;;;25.42;15.60;;;;;;;0.10;100.00;101071.97;5149143;27;20095;-86
2022/12/11 09:47:39;;;;;;;28.80;15.77;;;;;;;0.14;100.00;101071.19;5154514;27;20026;-85
2022/12/11 09:50:22;;;;;;;25.13;13.85;;;;;;;0.14;100.00;101075.50;5128598;27;20043;-86
2022/12/11 09:53:29;;;;;;;29.25;15.55;;;;;;;0.12;100.00;101071.97;5130829;27;20074;-86
2022/12/11 09:56:20;;;;;;;33.08;15.27;;;;;;;0.09;100.00;101064.97;5124905;27;20027;-85
2022/12/11 09:59:31;;;;;;;28.95;15.07;;;;;;;0.12;100.00;101059.84;5135664;27;20473;-86
2022/12/11 10:02:40;;;;;;;27.20;13.43;;;;;;;0.15;100.00;101069.47;5127362;27;20047;-85
2022/12/11 10:05:29;;;;;;;26.80;15.00;;;;;;;0.12;100.00;101061.56;5094497;27;20307;-86
2022/12/11 10:08:30;;;;;;;24.58;13.70;;;;;;;0.12;100.00;101053.75;5133631;27;20035;-86
2022/12/11 10:11:22;;;;;;;39.88;16.48;;;;;;;0.10;100.00;101064.16;5099913;27;20111;-86
2022/12/11 10:14:05;;;;;;;30.00;15.90;;;;;;;0.11;100.00;101054.63;5117569;27;20099;-86
2022/12/11 10:16:43;;;;;;;34.38;16.45;;;;;;;0.12;100.00;101062.44;5135715;27;20359;-85
2022/12/11 10:19:17;;;;;;;30.00;15.93;;;;;;;0.13;100.00;101065.94;5100742;27;20031;-86
2022/12/11 10:21:42;;;;;;;32.35;16.48;;;;;;;0.13;100.00;101059.00;5126612;27;20027;-86
2022/12/11 10:24:22;;;;;;;33.90;17.83;;;;;;;0.12;100.00;101044.22;5118500;27;20037;-85
2022/12/11 10:26:55;;;;;;;32.65;16.50;;;;;;;0.13;100.00;101055.53;5140760;27;20382;-86
2022/12/11 10:29:20;;;;;;;28.10;15.93;;;;;;;0.16;100.00;101056.47;5135627;27;20034;-86
2022/12/11 10:31:54;;;;;;;28.48;15.43;;;;;;;0.17;100.00;101055.66;5153960;27;20070;-86
2022/12/11 10:34:28;;;;;;;29.58;16.77;;;;;;;0.17;100.00;101047.84;5135196;27;20528;-86
2022/12/11 10:36:54;;;;;;;26.85;16.38;;;;;;;0.21;100.00;101052.25;5120941;27;20039;-86
2022/12/11 10:39:21;;;;;;;25.80;15.05;;;;;;;0.22;100.00;101045.31;5154119;27;20030;-85
2022/12/11 10:41:49;;;;;;;31.70;16.25;;;;;;;0.26;100.00;101051.50;5134664;27;20086;-85
2022/12/11 10:44:22;;;;;;;28.05;15.48;;;;;;;0.28;100.00;101049.81;5115138;28;20023;-86
2022/12/11 10:47:01;;;;;;;33.03;17.00;;;;;;;0.31;100.00;101047.28;5136624;27;20109;-86
2022/12/11 10:49:29;;;;;;;30.50;16.27;;;;;;;0.30;100.00;101048.13;5135273;27;20517;-86
2022/12/11 10:51:56;;;;;;;34.00;17.63;;;;;;;0.29;100.00;101036.81;5152590;27;20470;-86
2022/12/11 10:54:39;;;;;;;32.05;16.25;;;;;;;0.30;100.00;101049.00;5127706;27;20038;-86
2022/12/11 10:57:07;;;;;;;29.85;15.30;;;;;;;0.32;100.00;101044.72;5153739;27;20031;-86
2022/12/11 10:59:42;;;;;;;30.98;14.95;;;;;;;0.30;100.00;101046.41;5135382;27;20054;-86
2022/12/11 11:02:39;;;;;;;29.25;15.43;;;;;;;0.32;100.00;101044.72;5116930;28;20031;-86
2022/12/11 11:05:26;;;;;;;28.25;15.23;;;;;;;0.32;100.00;101041.19;5128828;27;20053;-85
2022/12/11 11:08:12;;;;;;;31.48;15.02;;;;;;;0.30;100.00;101040.31;5124054;27;20037;-86
2022/12/11 11:10:55;;;;;;;28.75;16.48;;;;;;;0.29;100.00;101035.94;5147005;27;20035;-86
2022/12/11 11:13:23;;;;;;;28.67;14.32;;;;;;;0.29;100.00;101028.13;5130567;27;20118;-86
2022/12/11 11:16:03;;;;;;;28.73;15.13;;;;;;;0.30;100.00;101030.75;5143086;27;20030;-86
2022/12/11 11:18:29;;;;;;;29.00;15.27;;;;;;;0.29;100.00;101023.78;5145076;27;20232;-86
2022/12/11 11:20:55;;;;;;;32.28;17.48;;;;;;;0.31;100.00;101022.09;5156205;27;20026;-86